sensor_id;sensor_type;location;lat;lon;timestamp;temperature;humidity
3678;DHT22;1855;50.934;6.958;2022-11-20T00:00:16;3.70;88.50
3678;DHT22;1855;50.934;6.958;2022-11-20T00:02:43;3.70;89.60
3678;DHT22;1855;50.934;6.958;2022-11-20T00:05:09;3.60;90.00
3678;DHT22;1855;50.934;6.958;2022-11-20T00:07:36;3.70;90.20
3678;DHT22;1855;50.934;6.958;2022-11-20T00:10:03;3.60;89.90
3678;DHT22;1855;50.934;6.958;2022-11-20T00:12:32;3.60;89.40
3678;DHT22;1855;50.934;6.958;2022-11-20T00:14:58;3.60;88.80
3678;DHT22;1855;50.934;6.958;2022-11-20T00:17:25;3.60;89.50
3678;DHT22;1855;50.934;6.958;2022-11-20T00:19:52;3.60;90.10
3678;DHT22;1855;50.934;6.958;2022-11-20T00:22:19;3.60;90.10
3678;DHT22;1855;50.934;6.958;2022-11-20T00:24:45;3.70;90.10
3678;DHT22;1855;50.934;6.958;2022-11-20T00:27:12;3.70;89.30
3678;DHT22;1855;50.934;6.958;2022-11-20T00:29:40;3.70;88.70
3678;DHT22;1855;50.934;6.958;2022-11-20T00:32:07;3.60;87.90
3678;DHT22;1855;50.934;6.958;2022-11-20T00:34:34;3.60;88.90
3678;DHT22;1855;50.934;6.958;2022-11-20T00:37:00;3.60;89.80
3678;DHT22;1855;50.934;6.958;2022-11-20T00:39:27;3.60;89.50
3678;DHT22;1855;50.934;6.958;2022-11-20T00:41:54;3.60;89.50
3678;DHT22;1855;50.934;6.958;2022-11-20T00:44:20;3.60;89.20
3678;DHT22;1855;50.934;6.958;2022-11-20T00:46:48;3.60;88.90
3678;DHT22;1855;50.934;6.958;2022-11-20T00:49:15;3.60;89.70
3678;DHT22;1855;50.934;6.958;2022-11-20T00:51:42;3.60;89.90
3678;DHT22;1855;50.934;6.958;2022-11-20T00:54:09;3.60;89.30
3678;DHT22;1855;50.934;6.958;2022-11-20T00:56:36;3.60;89.50
3678;DHT22;1855;50.934;6.958;2022-11-20T00:59:02;3.60;89.10
3678;DHT22;1855;50.934;6.958;2022-11-20T01:01:29;3.60;89.10
3678;DHT22;1855;50.934;6.958;2022-11-20T01:03:59;3.60;89.40
3678;DHT22;1855;50.934;6.958;2022-11-20T01:06:28;3.60;90.00
3678;DHT22;1855;50.934;6.958;2022-11-20T01:08:56;3.60;89.90
3678;DHT22;1855;50.934;6.958;2022-11-20T01:11:26;3.60;90.10
3678;DHT22;1855;50.934;6.958;2022-11-20T01:13:54;3.60;90.00
3678;DHT22;1855;50.934;6.958;2022-11-20T01:16:24;3.60;89.70
3678;DHT22;1855;50.934;6.958;2022-11-20T01:18:52;3.60;88.90
3678;DHT22;1855;50.934;6.958;2022-11-20T01:21:26;3.60;88.20
3678;DHT22;1855;50.934;6.958;2022-11-20T01:23:53;3.60;88.90
3678;DHT22;1855;50.934;6.958;2022-11-20T01:26:22;3.50;89.20
3678;DHT22;1855;50.934;6.958;2022-11-20T01:28:49;3.50;89.00
3678;DHT22;1855;50.934;6.958;2022-11-20T01:31:17;3.50;88.80
3678;DHT22;1855;50.934;6.958;2022-11-20T01:33:46;3.60;88.60
3678;DHT22;1855;50.934;6.958;2022-11-20T01:36:14;3.60;88.70
3678;DHT22;1855;50.934;6.958;2022-11-20T01:38:43;3.60;88.30
3678;DHT22;1855;50.934;6.958;2022-11-20T01:41:11;3.50;88.40
3678;DHT22;1855;50.934;6.958;2022-11-20T01:43:59;3.50;88.90
3678;DHT22;1855;50.934;6.958;2022-11-20T01:46:25;3.50;88.70
3678;DHT22;1855;50.934;6.958;2022-11-20T01:48:55;3.50;89.20
3678;DHT22;1855;50.934;6.958;2022-11-20T01:51:27;3.50;89.70
3678;DHT22;1855;50.934;6.958;2022-11-20T01:53:59;3.50;90.00
3678;DHT22;1855;50.934;6.958;2022-11-20T01:56:28;3.60;89.80
3678;DHT22;1855;50.934;6.958;2022-11-20T01:58:59;3.60;89.00
3678;DHT22;1855;50.934;6.958;2022-11-20T02:01:28;3.60;89.00
3678;DHT22;1855;50.934;6.958;2022-11-20T02:03:55;3.60;89.20
3678;DHT22;1855;50.934;6.958;2022-11-20T02:06:24;3.60;88.30
3678;DHT22;1855;50.934;6.958;2022-11-20T02:08:52;3.60;88.20
3678;DHT22;1855;50.934;6.958;2022-11-20T02:11:21;3.60;88.90
3678;DHT22;1855;50.934;6.958;2022-11-20T02:13:49;3.60;87.50
3678;DHT22;1855;50.934;6.958;2022-11-20T02:16:21;3.50;87.90
3678;DHT22;1855;50.934;6.958;2022-11-20T02:18:48;3.50;88.40
3678;DHT22;1855;50.934;6.958;2022-11-20T02:21:30;3.50;89.20
3678;DHT22;1855;50.934;6.958;2022-11-20T02:24:08;3.50;90.00
3678;DHT22;1855;50.934;6.958;2022-11-20T02:26:41;3.50;89.60
3678;DHT22;1855;50.934;6.958;2022-11-20T02:29:09;3.50;89.60
3678;DHT22;1855;50.934;6.958;2022-11-20T02:31:37;3.60;89.10
3678;DHT22;1855;50.934;6.958;2022-11-20T02:34:05;3.60;89.60
3678;DHT22;1855;50.934;6.958;2022-11-20T02:36:33;3.60;89.10
3678;DHT22;1855;50.934;6.958;2022-11-20T02:39:00;3.50;88.70
3678;DHT22;1855;50.934;6.958;2022-11-20T02:41:33;3.50;88.70
3678;DHT22;1855;50.934;6.958;2022-11-20T02:44:01;3.50;88.90
3678;DHT22;1855;50.934;6.958;2022-11-20T02:46:28;3.50;88.40
3678;DHT22;1855;50.934;6.958;2022-11-20T02:48:55;3.50;87.60
3678;DHT22;1855;50.934;6.958;2022-11-20T02:51:21;3.50;87.90
3678;DHT22;1855;50.934;6.958;2022-11-20T02:53:48;3.40;88.80
3678;DHT22;1855;50.934;6.958;2022-11-20T02:56:15;3.40;89.40
3678;DHT22;1855;50.934;6.958;2022-11-20T02:58:43;3.40;89.70
3678;DHT22;1855;50.934;6.958;2022-11-20T03:01:10;3.40;90.10
3678;DHT22;1855;50.934;6.958;2022-11-20T03:03:37;3.50;89.50
3678;DHT22;1855;50.934;6.958;2022-11-20T03:06:04;3.40;88.90
3678;DHT22;1855;50.934;6.958;2022-11-20T03:08:32;3.40;89.50
3678;DHT22;1855;50.934;6.958;2022-11-20T03:11:03;3.40;88.60
3678;DHT22;1855;50.934;6.958;2022-11-20T03:13:30;3.40;88.60
3678;DHT22;1855;50.934;6.958;2022-11-20T03:15:58;3.40;88.80
3678;DHT22;1855;50.934;6.958;2022-11-20T03:18:27;3.40;89.60
3678;DHT22;1855;50.934;6.958;2022-11-20T03:20:57;3.40;89.70
3678;DHT22;1855;50.934;6.958;2022-11-20T03:23:24;3.40;89.60
3678;DHT22;1855;50.934;6.958;2022-11-20T03:25:51;3.40;90.00
3678;DHT22;1855;50.934;6.958;2022-11-20T03:28:18;3.40;90.10
3678;DHT22;1855;50.934;6.958;2022-11-20T03:30:45;3.40;90.00
3678;DHT22;1855;50.934;6.958;2022-11-20T03:33:13;3.50;89.20
3678;DHT22;1855;50.934;6.958;2022-11-20T03:35:40;3.40;89.20
3678;DHT22;1855;50.934;6.958;2022-11-20T03:38:07;3.40;90.20
3678;DHT22;1855;50.934;6.958;2022-11-20T03:40:34;3.50;90.00
3678;DHT22;1855;50.934;6.958;2022-11-20T03:43:01;3.40;89.80
3678;DHT22;1855;50.934;6.958;2022-11-20T03:45:27;3.40;89.90
3678;DHT22;1855;50.934;6.958;2022-11-20T03:47:54;3.50;90.00
3678;DHT22;1855;50.934;6.958;2022-11-20T03:50:22;3.50;90.00
3678;DHT22;1855;50.934;6.958;2022-11-20T03:52:49;3.50;90.00
3678;DHT22;1855;50.934;6.958;2022-11-20T03:55:16;3.50;89.80
3678;DHT22;1855;50.934;6.958;2022-11-20T03:57:43;3.50;90.00
3678;DHT22;1855;50.934;6.958;2022-11-20T04:00:10;3.50;90.20
3678;DHT22;1855;50.934;6.958;2022-11-20T04:02:37;3.40;90.40
3678;DHT22;1855;50.934;6.958;2022-11-20T04:05:05;3.40;90.40
3678;DHT22;1855;50.934;6.958;2022-11-20T04:07:34;3.40;90.10
3678;DHT22;1855;50.934;6.958;2022-11-20T04:10:02;3.40;90.50
3678;DHT22;1855;50.934;6.958;2022-11-20T04:12:31;3.40;90.70
3678;DHT22;1855;50.934;6.958;2022-11-20T04:14:58;3.30;90.80
3678;DHT22;1855;50.934;6.958;2022-11-20T04:17:25;3.30;90.80
3678;DHT22;1855;50.934;6.958;2022-11-20T04:19:52;3.30;90.90
3678;DHT22;1855;50.934;6.958;2022-11-20T04:22:18;3.30;90.90
3678;DHT22;1855;50.934;6.958;2022-11-20T04:24:46;3.30;91.10
3678;DHT22;1855;50.934;6.958;2022-11-20T04:27:13;3.20;91.30
3678;DHT22;1855;50.934;6.958;2022-11-20T04:29:40;3.20;91.40
3678;DHT22;1855;50.934;6.958;2022-11-20T04:32:07;3.10;91.60
3678;DHT22;1855;50.934;6.958;2022-11-20T04:34:33;3.10;91.80
3678;DHT22;1855;50.934;6.958;2022-11-20T04:37:00;3.10;92.10
3678;DHT22;1855;50.934;6.958;2022-11-20T04:39:27;3.20;92.20
3678;DHT22;1855;50.934;6.958;2022-11-20T04:41:55;3.20;92.40
3678;DHT22;1855;50.934;6.958;2022-11-20T04:44:36;3.20;92.40
3678;DHT22;1855;50.934;6.958;2022-11-20T04:47:03;3.30;92.10
3678;DHT22;1855;50.934;6.958;2022-11-20T04:49:29;3.30;91.90
3678;DHT22;1855;50.934;6.958;2022-11-20T04:51:57;3.20;91.80
3678;DHT22;1855;50.934;6.958;2022-11-20T04:54:24;3.20;92.30
3678;DHT22;1855;50.934;6.958;2022-11-20T04:56:50;3.20;92.40
3678;DHT22;1855;50.934;6.958;2022-11-20T04:59:18;3.20;92.50
3678;DHT22;1855;50.934;6.958;2022-11-20T05:01:45;3.20;92.50
3678;DHT22;1855;50.934;6.958;2022-11-20T05:04:12;3.20;92.50
3678;DHT22;1855;50.934;6.958;2022-11-20T05:06:39;3.20;92.40
3678;DHT22;1855;50.934;6.958;2022-11-20T05:09:06;3.30;92.50
3678;DHT22;1855;50.934;6.958;2022-11-20T05:11:32;3.30;92.50
3678;DHT22;1855;50.934;6.958;2022-11-20T05:13:59;3.30;92.60
3678;DHT22;1855;50.934;6.958;2022-11-20T05:16:27;3.30;92.60
3678;DHT22;1855;50.934;6.958;2022-11-20T05:18:54;3.30;92.40
3678;DHT22;1855;50.934;6.958;2022-11-20T05:21:21;3.40;92.50
3678;DHT22;1855;50.934;6.958;2022-11-20T05:23:48;3.40;92.70
3678;DHT22;1855;50.934;6.958;2022-11-20T05:26:18;3.40;92.80
3678;DHT22;1855;50.934;6.958;2022-11-20T05:28:45;3.40;92.70
3678;DHT22;1855;50.934;6.958;2022-11-20T05:31:15;3.40;92.80
3678;DHT22;1855;50.934;6.958;2022-11-20T05:33:44;3.50;92.80
3678;DHT22;1855;50.934;6.958;2022-11-20T05:36:12;3.50;92.80
3678;DHT22;1855;50.934;6.958;2022-11-20T05:38:40;3.50;92.70
3678;DHT22;1855;50.934;6.958;2022-11-20T05:41:09;3.50;92.90
3678;DHT22;1855;50.934;6.958;2022-11-20T05:43:37;3.60;93.10
3678;DHT22;1855;50.934;6.958;2022-11-20T05:46:06;3.60;93.00
3678;DHT22;1855;50.934;6.958;2022-11-20T05:48:34;3.60;93.00
3678;DHT22;1855;50.934;6.958;2022-11-20T05:51:05;3.70;93.00
3678;DHT22;1855;50.934;6.958;2022-11-20T05:53:32;3.70;92.80
3678;DHT22;1855;50.934;6.958;2022-11-20T05:56:01;3.70;93.00
3678;DHT22;1855;50.934;6.958;2022-11-20T05:58:28;3.70;92.90
3678;DHT22;1855;50.934;6.958;2022-11-20T06:01:03;3.70;92.70
3678;DHT22;1855;50.934;6.958;2022-11-20T06:03:30;3.70;92.80
3678;DHT22;1855;50.934;6.958;2022-11-20T06:05:58;3.70;92.80
3678;DHT22;1855;50.934;6.958;2022-11-20T06:08:27;3.80;92.50
3678;DHT22;1855;50.934;6.958;2022-11-20T06:10:53;3.80;92.30
3678;DHT22;1855;50.934;6.958;2022-11-20T06:13:20;3.80;92.00
3678;DHT22;1855;50.934;6.958;2022-11-20T06:15:48;3.80;92.10
3678;DHT22;1855;50.934;6.958;2022-11-20T06:18:15;3.70;92.50
3678;DHT22;1855;50.934;6.958;2022-11-20T06:20:42;3.70;92.40
3678;DHT22;1855;50.934;6.958;2022-11-20T06:23:09;3.70;92.40
3678;DHT22;1855;50.934;6.958;2022-11-20T06:25:38;3.70;92.60
3678;DHT22;1855;50.934;6.958;2022-11-20T06:28:05;3.70;92.70
3678;DHT22;1855;50.934;6.958;2022-11-20T06:30:32;3.80;92.70
3678;DHT22;1855;50.934;6.958;2022-11-20T06:32:59;3.80;92.40
3678;DHT22;1855;50.934;6.958;2022-11-20T06:35:26;3.80;92.50
3678;DHT22;1855;50.934;6.958;2022-11-20T06:37:52;3.80;92.40
3678;DHT22;1855;50.934;6.958;2022-11-20T06:40:19;3.80;92.60
3678;DHT22;1855;50.934;6.958;2022-11-20T06:42:47;3.80;92.60
3678;DHT22;1855;50.934;6.958;2022-11-20T06:45:14;3.80;92.50
3678;DHT22;1855;50.934;6.958;2022-11-20T06:47:41;3.80;92.70
3678;DHT22;1855;50.934;6.958;2022-11-20T06:50:08;3.80;92.70
3678;DHT22;1855;50.934;6.958;2022-11-20T06:52:35;3.80;92.70
3678;DHT22;1855;50.934;6.958;2022-11-20T06:55:02;3.80;92.60
3678;DHT22;1855;50.934;6.958;2022-11-20T06:57:28;3.80;92.50
3678;DHT22;1855;50.934;6.958;2022-11-20T06:59:56;3.90;92.50
3678;DHT22;1855;50.934;6.958;2022-11-20T07:02:23;3.90;92.40
3678;DHT22;1855;50.934;6.958;2022-11-20T07:04:50;3.90;92.20
3678;DHT22;1855;50.934;6.958;2022-11-20T07:07:17;3.90;92.20
3678;DHT22;1855;50.934;6.958;2022-11-20T07:09:43;3.90;92.40
3678;DHT22;1855;50.934;6.958;2022-11-20T07:12:10;3.80;92.00
3678;DHT22;1855;50.934;6.958;2022-11-20T07:14:37;3.80;92.20
3678;DHT22;1855;50.934;6.958;2022-11-20T07:17:05;3.80;92.20
3678;DHT22;1855;50.934;6.958;2022-11-20T07:19:31;3.80;92.00
3678;DHT22;1855;50.934;6.958;2022-11-20T07:21:58;3.80;91.90
3678;DHT22;1855;50.934;6.958;2022-11-20T07:24:25;3.80;92.40
3678;DHT22;1855;50.934;6.958;2022-11-20T07:26:52;3.80;92.20
3678;DHT22;1855;50.934;6.958;2022-11-20T07:29:18;3.80;92.10
3678;DHT22;1855;50.934;6.958;2022-11-20T07:31:45;3.80;92.10
3678;DHT22;1855;50.934;6.958;2022-11-20T07:34:13;3.80;92.10
3678;DHT22;1855;50.934;6.958;2022-11-20T07:36:40;3.80;92.10
3678;DHT22;1855;50.934;6.958;2022-11-20T07:39:07;3.80;92.20
3678;DHT22;1855;50.934;6.958;2022-11-20T07:41:33;3.80;92.10
3678;DHT22;1855;50.934;6.958;2022-11-20T07:44:00;3.80;92.10
3678;DHT22;1855;50.934;6.958;2022-11-20T07:46:27;3.90;92.20
3678;DHT22;1855;50.934;6.958;2022-11-20T07:48:54;3.90;92.30
3678;DHT22;1855;50.934;6.958;2022-11-20T07:51:22;3.90;92.30
3678;DHT22;1855;50.934;6.958;2022-11-20T07:53:50;4.00;92.30
3678;DHT22;1855;50.934;6.958;2022-11-20T07:56:17;4.00;92.00
3678;DHT22;1855;50.934;6.958;2022-11-20T07:58:44;4.00;91.90
3678;DHT22;1855;50.934;6.958;2022-11-20T08:01:11;4.00;91.80
3678;DHT22;1855;50.934;6.958;2022-11-20T08:03:37;4.00;91.80
3678;DHT22;1855;50.934;6.958;2022-11-20T08:06:04;4.10;92.10
3678;DHT22;1855;50.934;6.958;2022-11-20T08:08:33;4.10;92.00
3678;DHT22;1855;50.934;6.958;2022-11-20T08:10:59;4.10;91.90
3678;DHT22;1855;50.934;6.958;2022-11-20T08:13:40;4.10;91.70
3678;DHT22;1855;50.934;6.958;2022-11-20T08:16:32;4.10;91.60
3678;DHT22;1855;50.934;6.958;2022-11-20T08:18:59;4.20;91.60
3678;DHT22;1855;50.934;6.958;2022-11-20T08:21:26;4.30;91.50
3678;DHT22;1855;50.934;6.958;2022-11-20T08:23:54;4.20;91.40
3678;DHT22;1855;50.934;6.958;2022-11-20T08:26:21;4.30;91.30
3678;DHT22;1855;50.934;6.958;2022-11-20T08:28:47;4.30;91.70
3678;DHT22;1855;50.934;6.958;2022-11-20T08:31:14;4.30;91.90
3678;DHT22;1855;50.934;6.958;2022-11-20T08:33:41;4.40;92.30
3678;DHT22;1855;50.934;6.958;2022-11-20T08:36:08;4.40;92.10
3678;DHT22;1855;50.934;6.958;2022-11-20T08:38:35;4.50;92.00
3678;DHT22;1855;50.934;6.958;2022-11-20T08:41:05;4.50;91.40
3678;DHT22;1855;50.934;6.958;2022-11-20T08:43:53;4.50;91.00
3678;DHT22;1855;50.934;6.958;2022-11-20T08:46:20;4.40;91.00
3678;DHT22;1855;50.934;6.958;2022-11-20T08:48:47;4.40;91.00
3678;DHT22;1855;50.934;6.958;2022-11-20T08:51:14;4.40;91.00
3678;DHT22;1855;50.934;6.958;2022-11-20T08:53:41;4.50;91.00
3678;DHT22;1855;50.934;6.958;2022-11-20T08:56:09;4.40;91.10
3678;DHT22;1855;50.934;6.958;2022-11-20T08:58:36;4.50;90.90
3678;DHT22;1855;50.934;6.958;2022-11-20T09:01:03;4.50;91.20
3678;DHT22;1855;50.934;6.958;2022-11-20T09:03:30;4.50;91.00
3678;DHT22;1855;50.934;6.958;2022-11-20T09:05:58;4.60;90.70
3678;DHT22;1855;50.934;6.958;2022-11-20T09:08:25;4.60;90.70
3678;DHT22;1855;50.934;6.958;2022-11-20T09:10:52;4.60;90.90
3678;DHT22;1855;50.934;6.958;2022-11-20T09:13:21;4.60;90.60
3678;DHT22;1855;50.934;6.958;2022-11-20T09:15:52;4.60;90.90
3678;DHT22;1855;50.934;6.958;2022-11-20T09:18:19;4.80;90.90
3678;DHT22;1855;50.934;6.958;2022-11-20T09:20:46;4.90;90.70
3678;DHT22;1855;50.934;6.958;2022-11-20T09:23:13;4.90;90.30
3678;DHT22;1855;50.934;6.958;2022-11-20T09:25:39;4.90;90.00
3678;DHT22;1855;50.934;6.958;2022-11-20T09:28:06;4.90;90.10
3678;DHT22;1855;50.934;6.958;2022-11-20T09:30:34;4.90;90.20
3678;DHT22;1855;50.934;6.958;2022-11-20T09:33:04;4.90;90.20
3678;DHT22;1855;50.934;6.958;2022-11-20T09:35:31;5.00;90.20
3678;DHT22;1855;50.934;6.958;2022-11-20T09:37:57;5.10;90.10
3678;DHT22;1855;50.934;6.958;2022-11-20T09:40:26;5.10;90.00
3678;DHT22;1855;50.934;6.958;2022-11-20T09:42:57;5.30;89.90
3678;DHT22;1855;50.934;6.958;2022-11-20T09:45:37;5.40;88.60
3678;DHT22;1855;50.934;6.958;2022-11-20T09:48:18;5.50;87.80
3678;DHT22;1855;50.934;6.958;2022-11-20T09:50:51;5.50;87.10
3678;DHT22;1855;50.934;6.958;2022-11-20T09:53:27;5.50;86.90
3678;DHT22;1855;50.934;6.958;2022-11-20T09:55:57;5.50;86.20
3678;DHT22;1855;50.934;6.958;2022-11-20T09:58:29;5.50;86.40
3678;DHT22;1855;50.934;6.958;2022-11-20T10:01:07;5.40;86.60
3678;DHT22;1855;50.934;6.958;2022-11-20T10:03:39;5.40;87.40
3678;DHT22;1855;50.934;6.958;2022-11-20T10:06:13;5.40;87.70
3678;DHT22;1855;50.934;6.958;2022-11-20T10:08:44;5.40;87.60
3678;DHT22;1855;50.934;6.958;2022-11-20T10:11:21;5.40;87.70
3678;DHT22;1855;50.934;6.958;2022-11-20T10:13:58;5.40;86.70
3678;DHT22;1855;50.934;6.958;2022-11-20T10:16:36;5.30;86.90
3678;DHT22;1855;50.934;6.958;2022-11-20T10:19:20;5.30;87.70
3678;DHT22;1855;50.934;6.958;2022-11-20T10:22:01;5.30;88.50
3678;DHT22;1855;50.934;6.958;2022-11-20T10:24:44;5.30;88.50
3678;DHT22;1855;50.934;6.958;2022-11-20T10:27:26;5.30;87.70
3678;DHT22;1855;50.934;6.958;2022-11-20T10:30:06;5.30;88.50
3678;DHT22;1855;50.934;6.958;2022-11-20T10:32:38;5.20;89.30
3678;DHT22;1855;50.934;6.958;2022-11-20T10:35:10;5.20;89.50
3678;DHT22;1855;50.934;6.958;2022-11-20T10:37:42;5.30;89.40
3678;DHT22;1855;50.934;6.958;2022-11-20T10:40:20;5.30;89.70
3678;DHT22;1855;50.934;6.958;2022-11-20T10:42:51;5.30;89.40
3678;DHT22;1855;50.934;6.958;2022-11-20T10:45:31;5.40;89.90
3678;DHT22;1855;50.934;6.958;2022-11-20T10:48:10;5.40;89.60
3678;DHT22;1855;50.934;6.958;2022-11-20T10:50:47;5.40;88.90
3678;DHT22;1855;50.934;6.958;2022-11-20T10:53:23;5.40;89.10
3678;DHT22;1855;50.934;6.958;2022-11-20T10:55:56;5.40;89.10
3678;DHT22;1855;50.934;6.958;2022-11-20T10:58:32;5.40;88.70
3678;DHT22;1855;50.934;6.958;2022-11-20T11:01:04;5.30;89.50
3678;DHT22;1855;50.934;6.958;2022-11-20T11:03:33;5.30;89.90
3678;DHT22;1855;50.934;6.958;2022-11-20T11:06:03;5.30;89.80
3678;DHT22;1855;50.934;6.958;2022-11-20T11:08:36;5.30;90.00
3678;DHT22;1855;50.934;6.958;2022-11-20T11:11:18;5.30;90.20
3678;DHT22;1855;50.934;6.958;2022-11-20T11:13:46;5.30;90.00
3678;DHT22;1855;50.934;6.958;2022-11-20T11:16:20;5.30;89.50
3678;DHT22;1855;50.934;6.958;2022-11-20T11:18:49;5.30;89.40
3678;DHT22;1855;50.934;6.958;2022-11-20T11:21:21;5.30;89.60
3678;DHT22;1855;50.934;6.958;2022-11-20T11:23:57;5.30;90.10
3678;DHT22;1855;50.934;6.958;2022-11-20T11:26:25;5.30;90.10
3678;DHT22;1855;50.934;6.958;2022-11-20T11:28:54;5.30;90.50
3678;DHT22;1855;50.934;6.958;2022-11-20T11:31:25;5.40;90.40
3678;DHT22;1855;50.934;6.958;2022-11-20T11:34:03;5.50;90.40
3678;DHT22;1855;50.934;6.958;2022-11-20T11:36:31;5.60;89.70
3678;DHT22;1855;50.934;6.958;2022-11-20T11:38:59;5.70;88.60
3678;DHT22;1855;50.934;6.958;2022-11-20T11:41:30;5.60;89.00
3678;DHT22;1855;50.934;6.958;2022-11-20T11:44:01;5.60;89.40
3678;DHT22;1855;50.934;6.958;2022-11-20T11:46:53;5.60;89.20
3678;DHT22;1855;50.934;6.958;2022-11-20T11:49:23;5.60;89.40
3678;DHT22;1855;50.934;6.958;2022-11-20T11:52:00;5.60;89.60
3678;DHT22;1855;50.934;6.958;2022-11-20T11:54:31;5.60;89.30
3678;DHT22;1855;50.934;6.958;2022-11-20T11:57:04;5.60;88.50
3678;DHT22;1855;50.934;6.958;2022-11-20T11:59:44;5.60;89.10
3678;DHT22;1855;50.934;6.958;2022-11-20T12:02:26;5.60;88.80
3678;DHT22;1855;50.934;6.958;2022-11-20T12:04:59;5.50;89.70
3678;DHT22;1855;50.934;6.958;2022-11-20T12:07:38;5.50;89.70
3678;DHT22;1855;50.934;6.958;2022-11-20T12:10:14;5.50;89.70
3678;DHT22;1855;50.934;6.958;2022-11-20T12:12:44;5.50;89.90
3678;DHT22;1855;50.934;6.958;2022-11-20T12:15:27;5.50;89.60
3678;DHT22;1855;50.934;6.958;2022-11-20T12:17:55;5.60;89.80
3678;DHT22;1855;50.934;6.958;2022-11-20T12:20:28;5.60;89.50
3678;DHT22;1855;50.934;6.958;2022-11-20T12:23:01;5.50;90.00
3678;DHT22;1855;50.934;6.958;2022-11-20T12:25:34;5.60;89.90
3678;DHT22;1855;50.934;6.958;2022-11-20T12:28:19;5.60;90.00
3678;DHT22;1855;50.934;6.958;2022-11-20T12:30:59;5.60;90.30
3678;DHT22;1855;50.934;6.958;2022-11-20T12:33:51;5.50;90.30
3678;DHT22;1855;50.934;6.958;2022-11-20T12:36:30;5.60;90.30
3678;DHT22;1855;50.934;6.958;2022-11-20T12:39:17;5.60;90.30
3678;DHT22;1855;50.934;6.958;2022-11-20T12:42:13;5.60;90.20
3678;DHT22;1855;50.934;6.958;2022-11-20T12:45:25;5.70;89.70
3678;DHT22;1855;50.934;6.958;2022-11-20T12:48:19;5.70;90.00
3678;DHT22;1855;50.934;6.958;2022-11-20T12:50:59;5.80;89.50
3678;DHT22;1855;50.934;6.958;2022-11-20T12:53:38;5.80;88.80
3678;DHT22;1855;50.934;6.958;2022-11-20T12:56:14;5.80;89.20
3678;DHT22;1855;50.934;6.958;2022-11-20T12:58:49;5.90;89.10
3678;DHT22;1855;50.934;6.958;2022-11-20T13:01:25;5.90;88.70
3678;DHT22;1855;50.934;6.958;2022-11-20T13:04:14;6.00;88.80
3678;DHT22;1855;50.934;6.958;2022-11-20T13:06:45;6.10;87.70
3678;DHT22;1855;50.934;6.958;2022-11-20T13:09:16;6.10;87.50
3678;DHT22;1855;50.934;6.958;2022-11-20T13:11:47;6.10;88.00
3678;DHT22;1855;50.934;6.958;2022-11-20T13:14:26;6.10;88.90
3678;DHT22;1855;50.934;6.958;2022-11-20T13:16:59;6.10;87.80
3678;DHT22;1855;50.934;6.958;2022-11-20T13:19:27;6.20;87.50
3678;DHT22;1855;50.934;6.958;2022-11-20T13:21:55;6.20;87.80
3678;DHT22;1855;50.934;6.958;2022-11-20T13:24:25;6.20;87.60
3678;DHT22;1855;50.934;6.958;2022-11-20T13:27:00;6.20;87.70
3678;DHT22;1855;50.934;6.958;2022-11-20T13:29:27;6.20;87.40
3678;DHT22;1855;50.934;6.958;2022-11-20T13:32:06;6.20;87.40
3678;DHT22;1855;50.934;6.958;2022-11-20T13:34:34;6.30;87.10
3678;DHT22;1855;50.934;6.958;2022-11-20T13:37:01;6.40;86.90
3678;DHT22;1855;50.934;6.958;2022-11-20T13:39:33;6.40;87.10
3678;DHT22;1855;50.934;6.958;2022-11-20T13:42:01;6.40;86.90
3678;DHT22;1855;50.934;6.958;2022-11-20T13:44:33;6.30;86.90
3678;DHT22;1855;50.934;6.958;2022-11-20T13:47:03;6.20;88.00
3678;DHT22;1855;50.934;6.958;2022-11-20T13:49:33;6.20;88.80
3678;DHT22;1855;50.934;6.958;2022-11-20T13:52:26;6.20;88.40
3678;DHT22;1855;50.934;6.958;2022-11-20T13:55:10;6.30;88.40
3678;DHT22;1855;50.934;6.958;2022-11-20T13:58:02;6.30;88.30
3678;DHT22;1855;50.934;6.958;2022-11-20T14:00:31;6.30;88.10
3678;DHT22;1855;50.934;6.958;2022-11-20T14:03:02;6.30;88.30
3678;DHT22;1855;50.934;6.958;2022-11-20T14:05:37;6.30;88.70
3678;DHT22;1855;50.934;6.958;2022-11-20T14:08:06;6.20;89.50
3678;DHT22;1855;50.934;6.958;2022-11-20T14:10:39;6.20;89.90
3678;DHT22;1855;50.934;6.958;2022-11-20T14:13:16;6.20;89.40
3678;DHT22;1855;50.934;6.958;2022-11-20T14:15:44;6.20;89.20
3678;DHT22;1855;50.934;6.958;2022-11-20T14:18:12;6.20;89.10
3678;DHT22;1855;50.934;6.958;2022-11-20T14:20:40;6.20;89.40
3678;DHT22;1855;50.934;6.958;2022-11-20T14:23:09;6.20;89.50
3678;DHT22;1855;50.934;6.958;2022-11-20T14:25:38;6.20;89.90
3678;DHT22;1855;50.934;6.958;2022-11-20T14:28:11;6.20;89.80
3678;DHT22;1855;50.934;6.958;2022-11-20T14:30:47;6.20;90.10
3678;DHT22;1855;50.934;6.958;2022-11-20T14:33:14;6.20;90.40
3678;DHT22;1855;50.934;6.958;2022-11-20T14:35:45;6.20;90.20
3678;DHT22;1855;50.934;6.958;2022-11-20T14:38:14;6.20;90.40
3678;DHT22;1855;50.934;6.958;2022-11-20T14:40:42;6.20;90.40
3678;DHT22;1855;50.934;6.958;2022-11-20T14:43:18;6.20;90.40
3678;DHT22;1855;50.934;6.958;2022-11-20T14:45:48;6.20;90.30
3678;DHT22;1855;50.934;6.958;2022-11-20T14:48:15;6.30;90.50
3678;DHT22;1855;50.934;6.958;2022-11-20T14:50:42;6.30;90.30
3678;DHT22;1855;50.934;6.958;2022-11-20T14:53:09;6.30;90.60
3678;DHT22;1855;50.934;6.958;2022-11-20T14:55:37;6.30;90.40
3678;DHT22;1855;50.934;6.958;2022-11-20T14:58:20;6.20;90.70
3678;DHT22;1855;50.934;6.958;2022-11-20T15:00:54;6.30;90.60
3678;DHT22;1855;50.934;6.958;2022-11-20T15:03:21;6.30;90.80
3678;DHT22;1855;50.934;6.958;2022-11-20T15:05:50;6.30;90.90
3678;DHT22;1855;50.934;6.958;2022-11-20T15:08:18;6.20;91.10
3678;DHT22;1855;50.934;6.958;2022-11-20T15:10:46;6.20;91.20
3678;DHT22;1855;50.934;6.958;2022-11-20T15:13:17;6.20;91.50
3678;DHT22;1855;50.934;6.958;2022-11-20T15:15:49;6.20;92.00
3678;DHT22;1855;50.934;6.958;2022-11-20T15:18:18;6.20;92.50
3678;DHT22;1855;50.934;6.958;2022-11-20T15:20:46;6.20;92.90
3678;DHT22;1855;50.934;6.958;2022-11-20T15:23:14;6.20;93.50
3678;DHT22;1855;50.934;6.958;2022-11-20T15:25:41;6.20;94.10
3678;DHT22;1855;50.934;6.958;2022-11-20T15:28:17;6.10;94.40
3678;DHT22;1855;50.934;6.958;2022-11-20T15:30:45;6.10;94.90
3678;DHT22;1855;50.934;6.958;2022-11-20T15:33:12;6.00;95.50
3678;DHT22;1855;50.934;6.958;2022-11-20T15:35:39;6.00;95.60
3678;DHT22;1855;50.934;6.958;2022-11-20T15:38:06;5.90;96.20
3678;DHT22;1855;50.934;6.958;2022-11-20T15:40:33;5.90;96.50
3678;DHT22;1855;50.934;6.958;2022-11-20T15:43:00;5.90;97.00
3678;DHT22;1855;50.934;6.958;2022-11-20T15:45:34;5.90;97.30
3678;DHT22;1855;50.934;6.958;2022-11-20T15:48:03;5.90;97.90
3678;DHT22;1855;50.934;6.958;2022-11-20T15:50:36;5.90;98.30
3678;DHT22;1855;50.934;6.958;2022-11-20T15:53:04;5.90;98.60
3678;DHT22;1855;50.934;6.958;2022-11-20T15:55:31;5.90;98.80
3678;DHT22;1855;50.934;6.958;2022-11-20T15:57:57;5.90;99.00
3678;DHT22;1855;50.934;6.958;2022-11-20T16:00:24;5.90;99.10
3678;DHT22;1855;50.934;6.958;2022-11-20T16:02:52;6.00;99.20
3678;DHT22;1855;50.934;6.958;2022-11-20T16:05:19;6.00;99.30
3678;DHT22;1855;50.934;6.958;2022-11-20T16:07:48;6.00;99.50
3678;DHT22;1855;50.934;6.958;2022-11-20T16:10:16;5.90;99.70
3678;DHT22;1855;50.934;6.958;2022-11-20T16:12:43;6.00;99.90
3678;DHT22;1855;50.934;6.958;2022-11-20T16:15:30;6.00;99.90
3678;DHT22;1855;50.934;6.958;2022-11-20T16:18:15;6.00;99.90
3678;DHT22;1855;50.934;6.958;2022-11-20T16:20:43;6.00;99.90
3678;DHT22;1855;50.934;6.958;2022-11-20T16:23:10;6.00;99.90
3678;DHT22;1855;50.934;6.958;2022-11-20T16:25:37;6.00;99.90
3678;DHT22;1855;50.934;6.958;2022-11-20T16:28:04;6.10;99.90
3678;DHT22;1855;50.934;6.958;2022-11-20T16:30:31;6.00;99.90
3678;DHT22;1855;50.934;6.958;2022-11-20T16:32:58;6.00;99.90
3678;DHT22;1855;50.934;6.958;2022-11-20T16:35:27;6.10;99.90